sensor_id;sensor_type;location;lat;lon;timestamp;P1;durP1;ratioP1;P2;durP2;ratioP2
33148;SDS011;19506;51.040;3.856;2023-02-28T15:28:34;9.80;;;2.77;;
33148;SDS011;19506;51.040;3.856;2023-02-28T15:31:01;13.88;;;2.40;;
33148;SDS011;19506;51.040;3.856;2023-02-28T15:33:47;9.75;;;3.20;;
33148;SDS011;19506;51.040;3.856;2023-02-28T15:36:31;13.82;;;3.40;;
33148;SDS011;19506;51.040;3.856;2023-02-28T15:39:21;15.35;;;2.53;;
33148;SDS011;19506;51.040;3.856;2023-02-28T15:41:51;13.68;;;2.55;;
33148;SDS011;19506;51.040;3.856;2023-02-28T15:44:22;27.73;;;3.40;;
33148;SDS011;19506;51.040;3.856;2023-02-28T15:47:01;23.08;;;3.50;;
33148;SDS011;19506;51.040;3.856;2023-02-28T15:49:32;18.55;;;3.22;;
33148;SDS011;19506;51.040;3.856;2023-02-28T15:52:12;25.25;;;2.65;;
33148;SDS011;19506;51.040;3.856;2023-02-28T15:54:41;12.63;;;3.10;;
33148;SDS011;19506;51.040;3.856;2023-02-28T15:57:23;11.32;;;2.88;;
33148;SDS011;19506;51.040;3.856;2023-02-28T15:59:58;19.02;;;3.47;;
33148;SDS011;19506;51.040;3.856;2023-02-28T16:07:34;11.18;;;2.95;;
33148;SDS011;19506;51.040;3.856;2023-02-28T16:10:01;25.20;;;2.95;;
33148;SDS011;19506;51.040;3.856;2023-02-28T16:12:27;15.23;;;2.47;;
33148;SDS011;19506;51.040;3.856;2023-02-28T16:14:57;24.48;;;3.65;;
33148;SDS011;19506;51.040;3.856;2023-02-28T16:17:31;24.40;;;3.40;;
33148;SDS011;19506;51.040;3.856;2023-02-28T16:19:59;18.02;;;2.97;;
33148;SDS011;19506;51.040;3.856;2023-02-28T16:22:25;18.80;;;2.80;;
33148;SDS011;19506;51.040;3.856;2023-02-28T16:24:51;14.27;;;3.40;;
33148;SDS011;19506;51.040;3.856;2023-02-28T16:27:18;15.32;;;2.45;;
33148;SDS011;19506;51.040;3.856;2023-02-28T16:29:48;17.55;;;3.30;;
33148;SDS011;19506;51.040;3.856;2023-02-28T16:32:14;16.70;;;3.45;;
33148;SDS011;19506;51.040;3.856;2023-02-28T16:34:41;8.40;;;2.60;;
33148;SDS011;19506;51.040;3.856;2023-02-28T16:37:10;15.50;;;3.45;;
33148;SDS011;19506;51.040;3.856;2023-02-28T16:39:37;17.23;;;2.90;;
33148;SDS011;19506;51.040;3.856;2023-02-28T16:42:03;23.58;;;3.38;;
33148;SDS011;19506;51.040;3.856;2023-02-28T16:44:29;11.10;;;2.75;;
33148;SDS011;19506;51.040;3.856;2023-02-28T16:47:02;18.55;;;4.63;;
33148;SDS011;19506;51.040;3.856;2023-02-28T16:49:29;17.50;;;2.97;;
33148;SDS011;19506;51.040;3.856;2023-02-28T16:51:54;26.67;;;3.97;;
33148;SDS011;19506;51.040;3.856;2023-02-28T16:54:20;8.65;;;3.58;;
33148;SDS011;19506;51.040;3.856;2023-02-28T16:56:47;17.38;;;3.08;;
33148;SDS011;19506;51.040;3.856;2023-02-28T16:59:15;25.48;;;4.95;;
33148;SDS011;19506;51.040;3.856;2023-02-28T17:01:44;9.68;;;2.40;;
33148;SDS011;19506;51.040;3.856;2023-02-28T17:04:10;19.48;;;3.35;;
33148;SDS011;19506;51.040;3.856;2023-02-28T17:06:36;20.05;;;3.65;;
33148;SDS011;19506;51.040;3.856;2023-02-28T17:09:03;23.05;;;4.00;;
33148;SDS011;19506;51.040;3.856;2023-02-28T17:11:28;13.98;;;3.88;;
33148;SDS011;19506;51.040;3.856;2023-02-28T17:13:54;23.98;;;3.92;;
33148;SDS011;19506;51.040;3.856;2023-02-28T17:16:22;25.10;;;5.88;;
33148;SDS011;19506;51.040;3.856;2023-02-28T17:18:56;21.17;;;4.88;;
33148;SDS011;19506;51.040;3.856;2023-02-28T17:21:23;21.70;;;4.75;;
33148;SDS011;19506;51.040;3.856;2023-02-28T17:23:49;19.48;;;5.10;;
33148;SDS011;19506;51.040;3.856;2023-02-28T17:26:16;25.00;;;5.57;;
33148;SDS011;19506;51.040;3.856;2023-02-28T17:28:45;37.92;;;7.35;;
33148;SDS011;19506;51.040;3.856;2023-02-28T17:31:11;35.53;;;7.72;;
33148;SDS011;19506;51.040;3.856;2023-02-28T17:33:37;42.80;;;7.38;;
33148;SDS011;19506;51.040;3.856;2023-02-28T17:36:03;43.40;;;8.40;;
33148;SDS011;19506;51.040;3.856;2023-02-28T17:38:29;35.30;;;8.07;;
33148;SDS011;19506;51.040;3.856;2023-02-28T17:40:54;46.90;;;8.93;;
33148;SDS011;19506;51.040;3.856;2023-02-28T17:43:25;47.42;;;10.82;;
33148;SDS011;19506;51.040;3.856;2023-02-28T17:45:52;37.88;;;8.52;;
33148;SDS011;19506;51.040;3.856;2023-02-28T17:48:18;44.50;;;9.63;;
33148;SDS011;19506;51.040;3.856;2023-02-28T17:50:43;45.92;;;10.63;;
33148;SDS011;19506;51.040;3.856;2023-02-28T17:53:09;54.20;;;10.63;;
33148;SDS011;19506;51.040;3.856;2023-02-28T17:55:35;45.60;;;7.72;;
33148;SDS011;19506;51.040;3.856;2023-02-28T17:58:01;38.78;;;7.85;;
33148;SDS011;19506;51.040;3.856;2023-02-28T18:00:28;31.60;;;7.95;;
33148;SDS011;19506;51.040;3.856;2023-02-28T18:02:54;36.55;;;8.35;;
33148;SDS011;19506;51.040;3.856;2023-02-28T18:05:19;41.83;;;9.63;;
33148;SDS011;19506;51.040;3.856;2023-02-28T18:07:45;39.75;;;8.07;;
33148;SDS011;19506;51.040;3.856;2023-02-28T18:10:15;37.50;;;8.65;;
33148;SDS011;19506;51.040;3.856;2023-02-28T18:12:44;34.75;;;7.72;;
33148;SDS011;19506;51.040;3.856;2023-02-28T18:15:11;36.22;;;8.90;;
33148;SDS011;19506;51.040;3.856;2023-02-28T18:17:37;35.17;;;7.38;;
33148;SDS011;19506;51.040;3.856;2023-02-28T18:20:03;38.83;;;8.63;;
33148;SDS011;19506;51.040;3.856;2023-02-28T18:22:29;30.42;;;9.05;;
33148;SDS011;19506;51.040;3.856;2023-02-28T18:24:55;28.10;;;8.25;;
33148;SDS011;19506;51.040;3.856;2023-02-28T18:27:21;31.95;;;7.63;;
33148;SDS011;19506;51.040;3.856;2023-02-28T18:29:46;36.40;;;8.50;;
33148;SDS011;19506;51.040;3.856;2023-02-28T18:32:13;27.02;;;7.82;;
33148;SDS011;19506;51.040;3.856;2023-02-28T18:34:39;32.78;;;7.97;;
33148;SDS011;19506;51.040;3.856;2023-02-28T18:37:05;32.50;;;7.97;;
33148;SDS011;19506;51.040;3.856;2023-02-28T18:39:30;36.38;;;8.70;;
33148;SDS011;19506;51.040;3.856;2023-02-28T18:41:56;32.05;;;9.15;;
33148;SDS011;19506;51.040;3.856;2023-02-28T18:44:22;35.85;;;8.10;;
33148;SDS011;19506;51.040;3.856;2023-02-28T18:46:48;42.17;;;8.45;;
33148;SDS011;19506;51.040;3.856;2023-02-28T18:49:14;35.55;;;9.30;;
33148;SDS011;19506;51.040;3.856;2023-02-28T18:51:41;37.78;;;9.52;;
33148;SDS011;19506;51.040;3.856;2023-02-28T18:54:09;32.53;;;7.82;;
33148;SDS011;19506;51.040;3.856;2023-02-28T18:56:36;31.65;;;8.55;;
33148;SDS011;19506;51.040;3.856;2023-02-28T18:59:02;26.33;;;6.40;;
33148;SDS011;19506;51.040;3.856;2023-02-28T19:01:28;29.67;;;7.28;;
33148;SDS011;19506;51.040;3.856;2023-02-28T19:03:57;35.80;;;7.85;;
33148;SDS011;19506;51.040;3.856;2023-02-28T19:06:27;27.98;;;7.97;;
33148;SDS011;19506;51.040;3.856;2023-02-28T19:08:58;30.70;;;7.00;;
33148;SDS011;19506;51.040;3.856;2023-02-28T19:11:25;28.50;;;7.80;;
33148;SDS011;19506;51.040;3.856;2023-02-28T19:13:52;25.48;;;7.43;;
33148;SDS011;19506;51.040;3.856;2023-02-28T19:16:18;25.02;;;6.78;;
33148;SDS011;19506;51.040;3.856;2023-02-28T19:18:45;26.00;;;8.02;;
33148;SDS011;19506;51.040;3.856;2023-02-28T19:21:13;24.98;;;6.72;;
33148;SDS011;19506;51.040;3.856;2023-02-28T19:23:40;31.63;;;7.28;;
33148;SDS011;19506;51.040;3.856;2023-02-28T19:26:06;26.50;;;7.25;;
33148;SDS011;19506;51.040;3.856;2023-02-28T19:28:34;29.23;;;7.97;;
33148;SDS011;19506;51.040;3.856;2023-02-28T19:31:00;29.30;;;7.40;;
33148;SDS011;19506;51.040;3.856;2023-02-28T19:33:26;25.88;;;6.18;;
33148;SDS011;19506;51.040;3.856;2023-02-28T19:35:52;23.38;;;6.53;;
33148;SDS011;19506;51.040;3.856;2023-02-28T19:38:17;27.70;;;6.45;;
33148;SDS011;19506;51.040;3.856;2023-02-28T19:40:43;24.95;;;7.38;;
33148;SDS011;19506;51.040;3.856;2023-02-28T19:43:09;22.63;;;6.78;;
33148;SDS011;19506;51.040;3.856;2023-02-28T19:45:35;17.95;;;5.50;;
33148;SDS011;19506;51.040;3.856;2023-02-28T19:48:02;26.73;;;6.85;;
33148;SDS011;19506;51.040;3.856;2023-02-28T19:50:28;16.00;;;6.05;;
33148;SDS011;19506;51.040;3.856;2023-02-28T19:52:54;19.25;;;5.63;;
33148;SDS011;19506;51.040;3.856;2023-02-28T19:55:19;23.25;;;6.07;;
33148;SDS011;19506;51.040;3.856;2023-02-28T19:57:45;20.65;;;6.38;;
33148;SDS011;19506;51.040;3.856;2023-02-28T20:00:12;15.55;;;5.45;;
33148;SDS011;19506;51.040;3.856;2023-02-28T20:02:39;24.98;;;6.35;;
33148;SDS011;19506;51.040;3.856;2023-02-28T20:05:05;16.65;;;5.82;;
33148;SDS011;19506;51.040;3.856;2023-02-28T20:07:32;21.48;;;5.65;;
33148;SDS011;19506;51.040;3.856;2023-02-28T20:09:59;21.35;;;6.50;;
33148;SDS011;19506;51.040;3.856;2023-02-28T20:12:24;13.48;;;4.93;;
33148;SDS011;19506;51.040;3.856;2023-02-28T20:14:51;15.43;;;6.07;;
33148;SDS011;19506;51.040;3.856;2023-02-28T20:17:20;17.77;;;5.50;;
33148;SDS011;19506;51.040;3.856;2023-02-28T20:19:46;22.45;;;6.57;;
33148;SDS011;19506;51.040;3.856;2023-02-28T20:22:13;18.00;;;6.22;;
33148;SDS011;19506;51.040;3.856;2023-02-28T20:24:39;30.52;;;8.30;;
33148;SDS011;19506;51.040;3.856;2023-02-28T20:29:31;28.25;;;5.65;;
33148;SDS011;19506;51.040;3.856;2023-02-28T20:31:57;23.98;;;5.80;;
33148;SDS011;19506;51.040;3.856;2023-02-28T20:34:23;12.68;;;6.05;;
33148;SDS011;19506;51.040;3.856;2023-02-28T20:36:49;21.42;;;6.30;;
33148;SDS011;19506;51.040;3.856;2023-02-28T20:39:15;18.85;;;5.82;;
33148;SDS011;19506;51.040;3.856;2023-02-28T20:41:41;14.02;;;6.35;;
33148;SDS011;19506;51.040;3.856;2023-02-28T20:44:08;15.05;;;5.97;;
33148;SDS011;19506;51.040;3.856;2023-02-28T20:46:36;16.10;;;5.72;;
33148;SDS011;19506;51.040;3.856;2023-02-28T20:49:02;15.90;;;5.75;;
33148;SDS011;19506;51.040;3.856;2023-02-28T20:51:28;12.40;;;5.57;;
33148;SDS011;19506;51.040;3.856;2023-02-28T20:53:54;15.52;;;5.90;;
33148;SDS011;19506;51.040;3.856;2023-02-28T20:56:20;9.93;;;4.63;;
33148;SDS011;19506;51.040;3.856;2023-02-28T20:58:48;17.48;;;6.72;;
33148;SDS011;19506;51.040;3.856;2023-02-28T21:01:18;16.45;;;5.68;;
33148;SDS011;19506;51.040;3.856;2023-02-28T21:03:50;14.00;;;5.38;;
33148;SDS011;19506;51.040;3.856;2023-02-28T21:06:19;14.32;;;5.13;;
33148;SDS011;19506;51.040;3.856;2023-02-28T21:08:47;14.20;;;5.35;;
33148;SDS011;19506;51.040;3.856;2023-02-28T21:11:13;11.90;;;4.63;;
33148;SDS011;19506;51.040;3.856;2023-02-28T21:13:41;13.52;;;5.18;;
33148;SDS011;19506;51.040;3.856;2023-02-28T21:16:10;9.88;;;4.78;;
33148;SDS011;19506;51.040;3.856;2023-02-28T21:18:37;16.08;;;5.32;;
33148;SDS011;19506;51.040;3.856;2023-02-28T21:21:04;12.73;;;4.35;;
33148;SDS011;19506;51.040;3.856;2023-02-28T21:23:32;11.63;;;4.38;;
33148;SDS011;19506;51.040;3.856;2023-02-28T21:26:17;11.98;;;4.80;;
33148;SDS011;19506;51.040;3.856;2023-02-28T21:28:54;15.53;;;4.90;;
33148;SDS011;19506;51.040;3.856;2023-02-28T21:31:22;15.85;;;5.53;;
33148;SDS011;19506;51.040;3.856;2023-02-28T21:33:51;13.68;;;4.70;;
33148;SDS011;19506;51.040;3.856;2023-02-28T21:36:19;10.25;;;5.15;;
33148;SDS011;19506;51.040;3.856;2023-02-28T21:38:48;14.70;;;4.97;;
33148;SDS011;19506;51.040;3.856;2023-02-28T21:41:19;12.05;;;4.25;;
33148;SDS011;19506;51.040;3.856;2023-02-28T21:43:46;11.48;;;4.10;;
33148;SDS011;19506;51.040;3.856;2023-02-28T21:46:13;12.43;;;5.10;;
33148;SDS011;19506;51.040;3.856;2023-02-28T21:48:41;13.18;;;3.90;;
33148;SDS011;19506;51.040;3.856;2023-02-28T21:51:08;13.30;;;4.55;;
33148;SDS011;19506;51.040;3.856;2023-02-28T21:53:36;11.75;;;4.53;;
33148;SDS011;19506;51.040;3.856;2023-02-28T21:56:05;14.57;;;4.90;;
33148;SDS011;19506;51.040;3.856;2023-02-28T21:58:32;9.15;;;4.45;;
33148;SDS011;19506;51.040;3.856;2023-02-28T22:01:05;12.15;;;4.88;;
33148;SDS011;19506;51.040;3.856;2023-02-28T22:03:49;16.25;;;4.55;;
33148;SDS011;19506;51.040;3.856;2023-02-28T22:08:44;14.10;;;4.70;;
33148;SDS011;19506;51.040;3.856;2023-02-28T22:11:13;9.73;;;4.95;;
33148;SDS011;19506;51.040;3.856;2023-02-28T22:13:40;11.65;;;4.63;;
33148;SDS011;19506;51.040;3.856;2023-02-28T22:16:08;9.10;;;4.13;;
33148;SDS011;19506;51.040;3.856;2023-02-28T22:18:38;9.13;;;4.20;;
33148;SDS011;19506;51.040;3.856;2023-02-28T22:21:05;8.43;;;4.40;;
33148;SDS011;19506;51.040;3.856;2023-02-28T22:23:31;10.63;;;3.85;;
33148;SDS011;19506;51.040;3.856;2023-02-28T22:25:58;9.10;;;4.32;;
33148;SDS011;19506;51.040;3.856;2023-02-28T22:28:25;14.32;;;4.10;;
33148;SDS011;19506;51.040;3.856;2023-02-28T22:30:52;11.98;;;4.22;;
33148;SDS011;19506;51.040;3.856;2023-02-28T22:33:17;8.00;;;4.05;;
33148;SDS011;19506;51.040;3.856;2023-02-28T22:38:09;10.18;;;3.78;;
33148;SDS011;19506;51.040;3.856;2023-02-28T22:40:35;9.82;;;3.67;;
33148;SDS011;19506;51.040;3.856;2023-02-28T22:43:02;8.90;;;3.70;;
33148;SDS011;19506;51.040;3.856;2023-02-28T22:45:28;11.02;;;4.32;;
33148;SDS011;19506;51.040;3.856;2023-02-28T22:47:53;8.52;;;3.80;;
33148;SDS011;19506;51.040;3.856;2023-02-28T22:50:19;10.73;;;4.07;;
33148;SDS011;19506;51.040;3.856;2023-02-28T22:52:45;9.50;;;3.70;;
33148;SDS011;19506;51.040;3.856;2023-02-28T22:55:10;9.07;;;4.15;;
33148;SDS011;19506;51.040;3.856;2023-02-28T22:57:36;6.45;;;3.20;;
33148;SDS011;19506;51.040;3.856;2023-02-28T23:00:04;6.50;;;3.30;;
33148;SDS011;19506;51.040;3.856;2023-02-28T23:02:31;11.05;;;3.40;;
33148;SDS011;19506;51.040;3.856;2023-02-28T23:04:57;8.88;;;3.55;;
33148;SDS011;19506;51.040;3.856;2023-02-28T23:09:48;5.82;;;3.05;;
33148;SDS011;19506;51.040;3.856;2023-02-28T23:12:15;7.20;;;3.83;;
33148;SDS011;19506;51.040;3.856;2023-02-28T23:14:41;7.63;;;3.90;;
33148;SDS011;19506;51.040;3.856;2023-02-28T23:19:33;10.68;;;3.83;;
33148;SDS011;19506;51.040;3.856;2023-02-28T23:22:00;6.97;;;3.42;;
33148;SDS011;19506;51.040;3.856;2023-02-28T23:24:28;10.30;;;4.85;;
33148;SDS011;19506;51.040;3.856;2023-02-28T23:26:56;11.85;;;4.30;;
33148;SDS011;19506;51.040;3.856;2023-02-28T23:29:23;6.78;;;3.63;;
33148;SDS011;19506;51.040;3.856;2023-02-28T23:31:50;9.10;;;3.42;;
33148;SDS011;19506;51.040;3.856;2023-02-28T23:36:48;9.25;;;4.75;;
33148;SDS011;19506;51.040;3.856;2023-02-28T23:41:40;8.27;;;3.08;;
33148;SDS011;19506;51.040;3.856;2023-02-28T23:46:31;5.22;;;3.22;;
33148;SDS011;19506;51.040;3.856;2023-02-28T23:48:57;8.05;;;3.30;;
33148;SDS011;19506;51.040;3.856;2023-02-28T23:51:23;7.28;;;3.38;;
33148;SDS011;19506;51.040;3.856;2023-02-28T23:56:16;5.28;;;2.55;;
33148;SDS011;19506;51.040;3.856;2023-02-28T23:58:48;5.97;;;3.30;;
